Time;durP1;ratioP1;P1;durP2;ratioP2;P2;SDS_P1;SDS_P2;PMS_P1;PMS_P2;Temp;Humidity;BMP_temperature;BMP_pressure;BME280_temperature;BME280_humidity;BME280_pressure;Samples;Min_cycle;Max_cycle;Signal;HPM_P1;HPM_P2
2024/04/20 00:00:12;;;;;;;1.87;1.77;;;11.20;66.30;;;;;;5397051;26;20253;-62
2024/04/20 00:02:37;;;;;;;5.00;2.10;;;10.80;67.20;;;;;;5397448;26;20355;-62
2024/04/20 00:05:04;;;;;;;4.50;2.40;;;10.70;68.30;;;;;;5397553;26;20892;-60
2024/04/20 00:07:29;;;;;;;3.37;1.87;;;10.50;69.20;;;;;;5403396;26;20284;-61
2024/04/20 00:09:58;;;;;;;4.10;2.00;;;10.60;69.40;;;;;;5397789;26;20857;-60
2024/04/20 00:12:24;;;;;;;3.90;1.80;;;10.60;68.70;;;;;;5401420;26;20289;-64
2024/04/20 00:14:53;;;;;;;2.80;1.97;;;10.50;69.00;;;;;;5402598;26;20525;-63
2024/04/20 00:17:18;;;;;;;2.43;2.23;;;10.50;69.20;;;;;;5406280;26;20527;-62
2024/04/20 00:19:44;;;;;;;5.03;2.70;;;10.60;69.00;;;;;;5405323;26;20899;-63
2024/04/20 00:22:11;;;;;;;5.33;2.73;;;10.80;68.50;;;;;;5398157;26;20277;-63
2024/04/20 00:24:37;;;;;;;3.87;2.50;;;10.80;68.60;;;;;;5405527;26;20531;-61
2024/04/20 00:27:03;;;;;;;4.10;2.67;;;10.90;68.70;;;;;;5395610;26;20527;-63
2024/04/20 00:29:29;;;;;;;6.30;3.20;;;10.70;68.30;;;;;;5400816;26;20545;-62
2024/04/20 00:31:54;;;;;;;4.97;2.53;;;10.30;69.40;;;;;;5395758;26;20475;-61
2024/04/20 00:34:20;;;;;;;5.93;2.77;;;10.40;69.80;;;;;;5400888;26;20342;-63
2024/04/20 00:36:49;;;;;;;3.23;2.20;;;10.50;69.50;;;;;;5393962;26;20237;-60
2024/04/20 00:39:15;;;;;;;6.73;2.83;;;10.40;69.20;;;;;;5405075;26;20287;-62
2024/04/20 00:41:45;;;;;;;3.67;2.10;;;10.30;69.70;;;;;;5408549;26;20463;-62
2024/04/20 00:44:11;;;;;;;5.27;2.43;;;10.30;69.70;;;;;;5407619;26;20284;-62
2024/04/20 00:46:36;;;;;;;8.93;2.00;;;10.40;69.40;;;;;;5412581;26;20463;-63
2024/04/20 00:49:02;;;;;;;5.10;2.40;;;10.50;69.00;;;;;;5413032;26;20814;-62
2024/04/20 00:51:28;;;;;;;4.20;2.20;;;10.50;68.30;;;;;;5410557;26;20662;-58
2024/04/20 00:53:56;;;;;;;10.10;2.20;;;10.50;68.40;;;;;;5410128;26;20733;-62
2024/04/20 00:56:22;;;;;;;3.90;2.10;;;10.30;68.40;;;;;;5407935;26;20250;-59
2024/04/20 00:58:47;;;;;;;2.77;1.87;;;10.50;68.20;;;;;;5413523;26;20982;-62
2024/04/20 01:01:13;;;;;;;11.43;2.10;;;10.50;67.70;;;;;;5402482;26;20249;-62
2024/04/20 01:03:38;;;;;;;5.20;1.97;;;10.50;66.90;;;;;;5410326;26;20250;-62
2024/04/20 01:06:04;;;;;;;3.90;2.00;;;10.50;66.40;;;;;;5406751;26;20859;-58
2024/04/20 01:08:30;;;;;;;3.67;2.23;;;10.30;66.60;;;;;;5409008;26;20241;-60
2024/04/20 01:10:57;;;;;;;2.90;1.97;;;10.40;67.00;;;;;;5398301;26;20475;-58
2024/04/20 01:13:26;;;;;;;3.30;1.90;;;10.50;66.60;;;;;;5398051;26;20619;-64
2024/04/20 01:15:52;;;;;;;8.77;1.97;;;10.50;66.20;;;;;;5394835;26;20566;-59
2024/04/20 01:18:18;;;;;;;4.77;1.87;;;10.30;66.60;;;;;;5399937;26;20538;-60
2024/04/20 01:20:44;;;;;;;3.00;1.77;;;10.40;66.10;;;;;;5401687;26;21025;-63
2024/04/20 01:23:09;;;;;;;4.03;2.10;;;10.40;65.80;;;;;;5403364;26;20251;-62
2024/04/20 01:25:40;;;;;;;6.97;2.17;;;10.30;65.80;;;;;;5368653;26;20288;-62
2024/04/20 01:28:06;;;;;;;3.77;1.50;;;10.30;66.20;;;;;;5408783;26;20276;-62
2024/04/20 01:30:31;;;;;;;5.47;2.10;;;10.30;65.80;;;;;;5396312;26;21213;-63
2024/04/20 01:32:57;;;;;;;4.53;2.13;;;10.20;66.00;;;;;;5401448;26;20280;-60
2024/04/20 01:35:23;;;;;;;2.67;1.60;;;10.10;66.00;;;;;;5404537;26;20490;-60
2024/04/20 01:37:48;;;;;;;3.73;1.67;;;10.00;66.50;;;;;;5400675;26;20242;-60
2024/04/20 01:40:14;;;;;;;3.37;1.97;;;10.20;66.30;;;;;;5399477;26;20568;-63
2024/04/20 01:42:40;;;;;;;4.37;1.80;;;10.20;66.00;;;;;;5399589;26;20245;-62
2024/04/20 01:45:05;;;;;;;4.20;1.53;;;10.20;65.90;;;;;;5399584;26;20249;-63
2024/04/20 01:47:31;;;;;;;4.30;1.80;;;10.30;65.70;;;;;;5400476;26;20282;-63
2024/04/20 01:49:57;;;;;;;3.10;1.77;;;10.30;65.50;;;;;;5408494;26;20346;-62
2024/04/20 01:52:23;;;;;;;5.60;2.10;;;10.50;65.10;;;;;;5407695;26;20990;-58
2024/04/20 01:54:49;;;;;;;7.73;2.83;;;10.20;65.10;;;;;;5406830;26;20361;-62
2024/04/20 01:57:15;;;;;;;4.10;1.90;;;10.30;65.80;;;;;;5398168;26;20478;-61
2024/04/20 01:59:40;;;;;;;4.30;1.63;;;10.30;65.60;;;;;;5403224;26;20245;-59
2024/04/20 02:02:06;;;;;;;2.63;1.50;;;10.20;65.50;;;;;;5407089;26;20292;-62
2024/04/20 02:04:31;;;;;;;3.80;1.77;;;10.20;66.10;;;;;;5402518;26;20353;-62
2024/04/20 02:06:57;;;;;;;6.57;1.70;;;10.20;66.00;;;;;;5410323;26;20241;-61
2024/04/20 02:09:23;;;;;;;3.20;1.47;;;10.40;65.70;;;;;;5411212;26;20302;-61
2024/04/20 02:11:48;;;;;;;4.03;1.60;;;10.50;65.50;;;;;;5408610;26;20233;-58
2024/04/20 02:14:14;;;;;;;3.23;1.30;;;10.40;65.50;;;;;;5399951;26;20722;-59
2024/04/20 02:16:40;;;;;;;4.47;2.07;;;10.20;65.50;;;;;;5405775;26;20245;-60
2024/04/20 02:19:06;;;;;;;4.80;1.90;;;10.30;66.00;;;;;;5411427;26;20542;-61
2024/04/20 02:21:32;;;;;;;7.97;2.07;;;10.50;65.60;;;;;;5407149;26;20510;-61
2024/04/20 02:23:57;;;;;;;5.73;1.87;;;10.40;65.60;;;;;;5394066;26;20284;-60
2024/04/20 02:26:23;;;;;;;4.00;1.87;;;10.50;65.60;;;;;;5410674;26;20314;-61
2024/04/20 02:28:48;;;;;;;3.20;1.80;;;10.60;65.30;;;;;;5405384;26;20614;-61
2024/04/20 02:31:14;;;;;;;5.33;2.33;;;10.60;65.10;;;;;;5402113;26;20287;-62
2024/04/20 02:33:40;;;;;;;2.50;1.90;;;10.50;65.40;;;;;;5403981;26;20346;-61
2024/04/20 02:36:07;;;;;;;6.57;1.60;;;10.70;64.90;;;;;;5400744;26;20276;-61
2024/04/20 02:38:32;;;;;;;4.57;1.70;;;10.70;64.60;;;;;;5403007;26;20610;-61
2024/04/20 02:40:59;;;;;;;2.60;1.60;;;10.70;64.40;;;;;;5409993;26;20479;-60
2024/04/20 02:43:24;;;;;;;5.20;1.93;;;10.70;64.50;;;;;;5407172;26;20368;-60
2024/04/20 02:45:50;;;;;;;7.33;2.10;;;10.80;64.10;;;;;;5408045;26;20825;-61
2024/04/20 02:48:16;;;;;;;4.17;2.00;;;10.80;64.00;;;;;;5402840;26;20245;-62
2024/04/20 02:50:41;;;;;;;3.47;1.80;;;10.70;64.30;;;;;;5406724;26;20233;-59
2024/04/20 02:53:07;;;;;;;4.67;2.10;;;10.70;64.10;;;;;;5403902;26;20274;-59
2024/04/20 02:55:33;;;;;;;5.60;2.17;;;10.50;64.20;;;;;;5407926;26;20234;-58
2024/04/20 02:57:58;;;;;;;5.63;1.83;;;10.60;64.60;;;;;;5405999;26;20813;-59
2024/04/20 03:00:24;;;;;;;4.87;2.17;;;10.70;64.30;;;;;;5408187;26;20285;-61
2024/04/20 03:02:49;;;;;;;3.73;1.90;;;10.60;64.10;;;;;;5408729;26;20279;-61
2024/04/20 03:05:16;;;;;;;3.40;1.80;;;10.60;64.60;;;;;;5408306;26;20237;-61
2024/04/20 03:07:41;;;;;;;8.43;1.97;;;10.50;64.80;;;;;;5402984;26;20691;-60
2024/04/20 03:10:07;;;;;;;3.30;1.50;;;10.60;64.60;;;;;;5394933;26;20527;-63
2024/04/20 03:12:32;;;;;;;2.53;1.40;;;10.40;64.80;;;;;;5393787;26;20370;-59
2024/04/20 03:14:58;;;;;;;5.33;1.90;;;10.40;64.90;;;;;;5393565;26;20280;-58
2024/04/20 03:17:23;;;;;;;2.17;1.53;;;10.40;64.80;;;;;;5397803;26;20249;-59
2024/04/20 03:19:51;;;;;;;3.63;1.70;;;10.30;64.60;;;;;;5398623;26;20253;-58
2024/04/20 03:22:17;;;;;;;3.07;1.90;;;10.40;64.70;;;;;;5398675;26;20291;-58
2024/04/20 03:24:42;;;;;;;3.40;2.30;;;10.40;64.60;;;;;;5401554;26;20465;-61
2024/04/20 03:27:08;;;;;;;5.07;1.90;;;10.40;64.60;;;;;;5404944;26;20292;-58
2024/04/20 03:29:33;;;;;;;5.57;2.00;;;10.40;63.90;;;;;;5395684;26;20584;-61
2024/04/20 03:31:59;;;;;;;4.10;2.20;;;10.20;64.40;;;;;;5400008;26;20261;-63
2024/04/20 03:34:24;;;;;;;4.20;2.30;;;10.20;64.70;;;;;;5399902;26;20280;-61
2024/04/20 03:36:50;;;;;;;5.90;2.17;;;10.20;64.50;;;;;;5397766;26;20924;-59
2024/04/20 03:39:16;;;;;;;4.30;1.70;;;10.10;64.60;;;;;;5397993;26;20243;-61
2024/04/20 03:41:45;;;;;;;5.33;1.87;;;10.00;64.90;;;;;;5398630;26;20241;-59
2024/04/20 03:44:14;;;;;;;4.97;1.87;;;10.10;64.60;;;;;;5393632;26;20502;-63
2024/04/20 03:46:41;;;;;;;5.47;1.87;;;9.90;66.30;;;;;;5396536;26;20476;-60
2024/04/20 03:49:06;;;;;;;5.97;1.67;;;10.00;65.10;;;;;;5403125;26;20520;-58
2024/04/20 03:51:32;;;;;;;4.97;2.27;;;10.20;65.10;;;;;;5399503;26;20475;-59
2024/04/20 03:54:01;;;;;;;4.90;1.80;;;10.30;64.90;;;;;;5403452;26;20287;-61
2024/04/20 03:56:27;;;;;;;9.07;2.37;;;10.40;64.60;;;;;;5396122;26;20529;-58
2024/04/20 03:58:53;;;;;;;5.07;1.60;;;10.60;64.30;;;;;;5404925;26;20531;-63
2024/04/20 04:01:18;;;;;;;4.87;2.53;;;10.50;64.10;;;;;;5394932;26;20531;-62
2024/04/20 04:03:44;;;;;;;5.90;2.07;;;10.50;64.20;;;;;;5395067;26;20686;-60
2024/04/20 04:06:09;;;;;;;5.00;2.17;;;10.50;64.30;;;;;;5397652;26;20238;-58
2024/04/20 04:08:35;;;;;;;6.33;2.33;;;10.50;64.10;;;;;;5410022;26;20229;-61
2024/04/20 04:11:01;;;;;;;3.60;2.20;;;10.40;63.90;;;;;;5407327;26;20284;-60
2024/04/20 04:13:26;;;;;;;6.97;2.50;;;10.30;64.30;;;;;;5398859;26;20309;-57
2024/04/20 04:15:52;;;;;;;6.20;2.43;;;10.40;64.40;;;;;;5401655;26;20250;-58
2024/04/20 04:18:20;;;;;;;6.60;1.87;;;10.20;64.40;;;;;;5404813;26;20242;-62
2024/04/20 04:20:45;;;;;;;6.40;2.10;;;10.10;64.80;;;;;;5407749;26;20234;-59
2024/04/20 04:23:12;;;;;;;5.83;2.87;;;10.30;64.70;;;;;;5404510;26;20591;-62
2024/04/20 04:25:38;;;;;;;4.33;1.80;;;10.20;64.20;;;;;;5404930;26;20354;-61
2024/04/20 04:28:04;;;;;;;6.57;2.17;;;10.20;64.60;;;;;;5401495;26;20479;-62
2024/04/20 04:30:29;;;;;;;6.47;2.07;;;9.80;66.60;;;;;;5401968;26;20233;-60
2024/04/20 04:32:55;;;;;;;7.53;2.40;;;9.70;67.40;;;;;;5401069;26;20534;-59
2024/04/20 04:35:20;;;;;;;4.60;2.10;;;9.90;67.80;;;;;;5401555;26;20242;-60
2024/04/20 04:37:46;;;;;;;3.37;1.97;;;9.80;67.20;;;;;;5402141;26;20246;-59
2024/04/20 04:40:11;;;;;;;4.57;2.10;;;9.70;67.40;;;;;;5402436;26;20246;-57
2024/04/20 04:42:37;;;;;;;7.37;2.30;;;9.70;67.80;;;;;;5407604;26;20241;-60
2024/04/20 04:45:03;;;;;;;7.67;3.03;;;9.90;67.50;;;;;;5411141;26;20225;-59
2024/04/20 04:47:29;;;;;;;6.70;2.27;;;9.60;67.80;;;;;;5405382;26;20260;-58
2024/04/20 04:49:54;;;;;;;8.43;2.80;;;9.50;68.70;;;;;;5403263;26;20771;-59
2024/04/20 04:52:20;;;;;;;5.60;2.00;;;9.50;69.50;;;;;;5403022;26;20230;-59
2024/04/20 04:54:45;;;;;;;6.50;2.77;;;9.30;69.20;;;;;;5409326;26;20773;-58
2024/04/20 04:57:11;;;;;;;4.30;2.43;;;9.30;69.80;;;;;;5401206;26;20323;-59
2024/04/20 04:59:36;;;;;;;7.23;2.13;;;9.20;69.70;;;;;;5402243;26;20221;-57
2024/04/20 05:02:02;;;;;;;7.10;2.37;;;9.40;70.10;;;;;;5396546;26;20235;-59
2024/04/20 05:04:28;;;;;;;4.77;2.83;;;9.60;69.60;;;;;;5401476;26;20548;-57
2024/04/20 05:06:54;;;;;;;5.37;2.10;;;9.70;69.10;;;;;;5399799;26;20287;-58
2024/04/20 05:09:19;;;;;;;3.00;2.23;;;9.50;69.20;;;;;;5388990;26;20262;-59
2024/04/20 05:11:45;;;;;;;5.77;2.20;;;9.60;69.10;;;;;;5400275;26;20331;-60
2024/04/20 05:14:12;;;;;;;4.90;2.00;;;9.60;69.20;;;;;;5401527;26;20275;-59
2024/04/20 05:16:37;;;;;;;7.10;2.40;;;9.70;69.00;;;;;;5401806;26;20467;-57
2024/04/20 05:19:05;;;;;;;6.80;2.20;;;10.10;69.30;;;;;;5399497;26;20522;-58
2024/04/20 05:21:31;;;;;;;5.20;1.93;;;10.30;67.40;;;;;;5403157;26;20242;-57
2024/04/20 05:23:56;;;;;;;3.80;1.57;;;10.40;65.90;;;;;;5392939;26;20585;-58
2024/04/20 05:26:23;;;;;;;2.17;1.77;;;10.40;65.00;;;;;;5400568;26;20293;-59
2024/04/20 05:28:49;;;;;;;3.90;1.80;;;10.60;65.00;;;;;;5407072;26;20272;-58
2024/04/20 05:31:15;;;;;;;2.60;1.50;;;10.70;63.10;;;;;;5402931;26;20459;-59
2024/04/20 05:33:41;;;;;;;2.80;2.00;;;10.60;62.90;;;;;;5405114;26;21096;-57
2024/04/20 05:36:07;;;;;;;5.63;1.93;;;10.70;62.90;;;;;;5400756;26;20272;-59
2024/04/20 05:38:32;;;;;;;2.80;1.70;;;10.80;63.00;;;;;;5411469;26;20475;-59
2024/04/20 05:41:03;;;;;;;1.80;1.57;;;10.80;62.30;;;;;;5404483;26;20765;-58
2024/04/20 05:43:28;;;;;;;2.47;1.63;;;11.00;62.20;;;;;;5398703;26;20245;-58
2024/04/20 05:45:54;;;;;;;2.50;1.70;;;11.20;61.80;;;;;;5396626;26;20872;-60
2024/04/20 05:48:20;;;;;;;2.10;1.67;;;11.20;60.90;;;;;;5403371;26;20305;-60
2024/04/20 05:50:45;;;;;;;4.70;2.03;;;11.10;60.40;;;;;;5406131;26;20729;-59
2024/04/20 05:53:11;;;;;;;5.53;1.93;;;11.10;60.50;;;;;;5408890;26;20280;-60
2024/04/20 05:55:37;;;;;;;2.53;1.60;;;11.10;60.50;;;;;;5403962;26;20234;-58
2024/04/20 05:58:04;;;;;;;4.37;1.83;;;11.00;60.50;;;;;;5405059;26;20756;-59
2024/04/20 06:00:30;;;;;;;3.03;2.30;;;10.90;61.50;;;;;;5403171;26;20302;-59
2024/04/20 06:02:55;;;;;;;4.73;1.70;;;11.00;61.40;;;;;;5404114;26;20524;-58
2024/04/20 06:05:21;;;;;;;6.03;2.10;;;11.10;61.80;;;;;;5399749;26;20238;-58
2024/04/20 06:07:47;;;;;;;3.23;1.90;;;11.10;60.50;;;;;;5402659;26;20476;-59
2024/04/20 06:10:13;;;;;;;3.53;1.70;;;11.20;60.80;;;;;;5392917;26;20238;-59
2024/04/20 06:12:39;;;;;;;4.30;2.43;;;11.40;60.90;;;;;;5402815;26;20910;-58
2024/04/20 06:15:05;;;;;;;2.40;1.67;;;11.50;60.00;;;;;;5402907;26;20289;-59
2024/04/20 06:17:31;;;;;;;3.00;1.80;;;11.20;59.20;;;;;;5402839;26;20489;-59
2024/04/20 06:19:56;;;;;;;8.80;8.00;;;11.20;59.80;;;;;;5404822;26;20237;-58
2024/04/20 06:22:22;;;;;;;2.30;2.10;;;11.00;59.60;;;;;;5405510;26;20250;-59
2024/04/20 06:24:52;;;;;;;6.13;2.47;;;11.00;60.40;;;;;;5406534;26;20276;-59
2024/04/20 06:27:19;;;;;;;4.80;1.80;;;11.20;60.20;;;;;;5404718;26;20300;-59
2024/04/20 06:29:44;;;;;;;3.30;2.17;;;11.50;59.90;;;;;;5405969;26;20527;-58
2024/04/20 06:32:10;;;;;;;3.50;2.27;;;11.70;59.50;;;;;;5397760;26;20469;-56
2024/04/20 06:34:35;;;;;;;6.90;2.27;;;12.00;58.60;;;;;;5407523;26;20234;-56
2024/04/20 06:37:01;;;;;;;4.90;2.07;;;12.10;58.00;;;;;;5399195;26;20278;-56
2024/04/20 06:39:27;;;;;;;3.07;1.77;;;11.80;57.80;;;;;;5397518;26;20630;-58
2024/04/20 06:41:54;;;;;;;2.00;1.77;;;11.60;58.00;;;;;;5407413;26;20238;-58
2024/04/20 06:44:20;;;;;;;3.80;2.00;;;11.50;58.50;;;;;;5402292;26;20241;-56
2024/04/20 06:46:46;;;;;;;4.73;2.10;;;11.70;58.80;;;;;;5398946;26;20465;-58
2024/04/20 06:49:13;;;;;;;3.50;2.30;;;12.00;58.60;;;;;;5403405;26;20468;-58
2024/04/20 06:51:38;;;;;;;4.20;1.70;;;12.10;58.50;;;;;;5403960;26;20520;-58
2024/04/20 06:54:04;;;;;;;6.33;3.37;;;12.10;58.00;;;;;;5407504;26;20830;-58
2024/04/20 06:56:30;;;;;;;2.90;1.97;;;12.00;57.60;;;;;;5398982;26;20250;-59
2024/04/20 06:58:55;;;;;;;3.83;2.13;;;12.00;57.70;;;;;;5410749;26;20834;-57
2024/04/20 07:01:21;;;;;;;4.53;2.10;;;12.20;57.90;;;;;;5398462;26;20241;-58
2024/04/20 07:03:46;;;;;;;2.77;2.20;;;12.20;57.50;;;;;;5405508;26;20572;-58
2024/04/20 07:06:12;;;;;;;3.90;2.20;;;12.30;58.00;;;;;;5397202;26;20242;-58
2024/04/20 07:08:38;;;;;;;4.43;2.47;;;12.30;57.60;;;;;;5394492;26;20241;-58
2024/04/20 07:11:05;;;;;;;2.37;1.83;;;12.30;57.60;;;;;;5398612;26;20231;-57
2024/04/20 07:13:33;;;;;;;3.93;2.10;;;12.50;57.40;;;;;;5396483;26;20237;-58
2024/04/20 07:15:59;;;;;;;2.07;1.53;;;12.70;57.10;;;;;;5398266;26;20529;-56
2024/04/20 07:18:25;;;;;;;3.50;2.00;;;12.80;56.90;;;;;;5395182;26;20455;-58
2024/04/20 07:20:51;;;;;;;3.87;2.23;;;12.60;55.30;;;;;;5396754;26;20239;-57
2024/04/20 07:23:16;;;;;;;4.57;2.20;;;12.50;56.00;;;;;;5403369;26;20533;-59
2024/04/20 07:25:43;;;;;;;1.83;1.70;;;12.50;56.20;;;;;;5395896;26;20330;-57
2024/04/20 07:28:09;;;;;;;2.77;1.50;;;12.50;55.70;;;;;;5405053;26;20338;-58
2024/04/20 07:30:34;;;;;;;1.67;1.57;;;12.40;56.40;;;;;;5398769;26;20994;-58
2024/04/20 07:33:00;;;;;;;1.53;1.43;;;12.20;55.40;;;;;;5402037;26;20313;-58
2024/04/20 07:35:25;;;;;;;2.47;2.00;;;12.10;55.60;;;;;;5403834;26;20225;-57
2024/04/20 07:37:51;;;;;;;5.00;2.20;;;12.10;55.30;;;;;;5407827;26;20519;-57
2024/04/20 07:40:17;;;;;;;2.47;1.63;;;12.00;56.10;;;;;;5398532;26;20334;-57
2024/04/20 07:42:42;;;;;;;4.30;2.20;;;12.10;55.90;;;;;;5402604;26;20233;-57
2024/04/20 07:45:08;;;;;;;5.20;2.13;;;12.10;56.10;;;;;;5394524;26;20261;-58
2024/04/20 07:47:33;;;;;;;3.60;1.87;;;12.10;55.60;;;;;;5400630;26;20293;-57
2024/04/20 07:49:59;;;;;;;4.90;1.90;;;11.90;55.10;;;;;;5404832;26;20681;-55
2024/04/20 07:52:25;;;;;;;2.80;2.40;;;11.90;55.40;;;;;;5397140;26;20234;-58
2024/04/20 07:54:50;;;;;;;2.73;1.80;;;12.00;56.10;;;;;;5402466;26;21060;-57
2024/04/20 07:57:16;;;;;;;1.90;1.63;;;12.00;54.90;;;;;;5365918;26;20272;-58
2024/04/20 07:59:42;;;;;;;2.27;1.80;;;11.80;54.90;;;;;;5405187;26;20392;-58
2024/04/20 08:02:09;;;;;;;5.60;2.33;;;12.00;55.30;;;;;;5403878;26;20235;-58
2024/04/20 08:04:34;;;;;;;4.83;2.60;;;12.10;55.50;;;;;;5403451;26;20258;-57
2024/04/20 08:07:00;;;;;;;7.80;2.73;;;12.00;55.20;;;;;;5399584;26;21123;-56
2024/04/20 08:09:25;;;;;;;4.27;3.30;;;11.90;55.70;;;;;;5403318;26;20631;-57
2024/04/20 08:11:51;;;;;;;2.90;2.60;;;11.80;55.90;;;;;;5403824;26;20288;-59
2024/04/20 08:14:17;;;;;;;8.37;3.07;;;11.80;56.60;;;;;;5395270;26;20235;-57
2024/04/20 08:16:42;;;;;;;5.20;2.80;;;11.80;56.10;;;;;;5399652;26;20276;-57
2024/04/20 08:19:08;;;;;;;5.93;2.70;;;12.00;56.70;;;;;;5398957;26;21283;-57
2024/04/20 08:21:33;;;;;;;5.13;2.87;;;12.00;55.30;;;;;;5411285;26;20609;-56
2024/04/20 08:23:59;;;;;;;3.70;2.40;;;11.90;55.40;;;;;;5403747;26;20233;-59
2024/04/20 08:26:25;;;;;;;4.87;2.20;;;12.20;55.70;;;;;;5406211;26;20241;-58
2024/04/20 08:28:51;;;;;;;3.93;2.10;;;12.40;55.20;;;;;;5408961;26;20528;-56
2024/04/20 08:31:16;;;;;;;3.10;2.23;;;12.80;55.20;;;;;;5405534;26;20532;-58
2024/04/20 08:33:42;;;;;;;2.43;2.10;;;13.00;55.70;;;;;;5404857;26;21404;-59
2024/04/20 08:36:07;;;;;;;2.03;1.87;;;13.10;53.50;;;;;;5403346;26;20237;-58
2024/04/20 08:38:33;;;;;;;3.53;2.23;;;13.30;53.10;;;;;;5405013;26;20259;-57
2024/04/20 08:41:08;;;;;;;5.40;2.13;;;13.20;51.30;;;;;;5410473;26;20305;-59
2024/04/20 08:43:36;;;;;;;3.63;2.20;;;13.10;51.10;;;;;;5408240;26;20276;-58
2024/04/20 08:46:03;;;;;;;2.17;1.83;;;13.20;51.00;;;;;;5403551;26;20467;-59
2024/04/20 08:48:30;;;;;;;3.10;2.07;;;12.80;50.30;;;;;;5408297;26;20866;-56
2024/04/20 08:51:01;;;;;;;3.83;2.27;;;12.90;50.90;;;;;;5401159;26;21030;-58
2024/04/20 08:53:28;;;;;;;2.73;1.87;;;13.00;50.90;;;;;;5399010;26;21043;-55
2024/04/20 08:55:55;;;;;;;3.80;2.30;;;13.00;50.60;;;;;;5403131;26;20515;-57
2024/04/20 08:58:20;;;;;;;2.67;2.27;;;13.10;51.40;;;;;;5403569;26;20548;-58
2024/04/20 09:00:49;;;;;;;3.10;2.40;;;13.40;50.60;;;;;;5402689;26;20471;-57
2024/04/20 09:03:15;;;;;;;2.70;2.20;;;13.30;50.50;;;;;;5403770;26;20234;-57
2024/04/20 09:05:43;;;;;;;6.10;2.70;;;13.40;49.80;;;;;;5408676;26;21374;-58
2024/04/20 09:08:09;;;;;;;4.10;2.10;;;13.40;48.50;;;;;;5409780;26;21141;-56
2024/04/20 09:10:35;;;;;;;3.20;2.27;;;13.60;49.50;;;;;;5401927;26;20471;-56
2024/04/20 09:13:01;;;;;;;3.47;2.27;;;13.60;49.00;;;;;;5402283;26;20463;-59
2024/04/20 09:15:30;;;;;;;2.73;2.03;;;13.80;50.60;;;;;;5404828;26;20469;-58
2024/04/20 09:17:56;;;;;;;3.83;2.53;;;13.90;50.40;;;;;;5412975;26;20242;-56
2024/04/20 09:20:22;;;;;;;2.70;2.37;;;13.50;50.20;;;;;;5409602;26;20531;-58
2024/04/20 09:22:49;;;;;;;5.20;2.60;;;13.40;50.90;;;;;;5397425;26;20455;-57
2024/04/20 09:25:18;;;;;;;6.90;4.00;;;13.60;51.40;;;;;;5409045;26;20245;-57
2024/04/20 09:27:50;;;;;;;2.93;2.37;;;13.90;50.90;;;;;;5410402;26;20940;-59
2024/04/20 09:30:15;;;;;;;7.70;1.93;;;14.00;49.80;;;;;;5404490;26;20546;-59
2024/04/20 09:32:44;;;;;;;2.97;2.20;;;13.80;47.30;;;;;;5410364;26;20467;-57
2024/04/20 09:35:10;;;;;;;2.27;2.17;;;13.70;48.20;;;;;;5407081;26;20246;-57
2024/04/20 09:37:35;;;;;;;2.10;1.90;;;13.90;49.00;;;;;;5402419;26;21754;-57
2024/04/20 09:40:01;;;;;;;4.70;2.73;;;14.10;50.10;;;;;;5399381;26;20245;-54
2024/04/20 09:42:29;;;;;;;2.00;1.90;;;14.40;49.20;;;;;;5412434;26;20249;-57
2024/04/20 09:44:55;;;;;;;2.67;2.23;;;14.60;48.90;;;;;;5390077;26;20874;-57
2024/04/20 09:47:25;;;;;;;5.03;3.03;;;14.80;48.40;;;;;;5395307;26;20464;-56
2024/04/20 09:49:51;;;;;;;3.40;2.23;;;14.50;47.00;;;;;;5403889;26;20470;-55
2024/04/20 09:52:30;;;;;;;4.10;2.13;;;14.40;47.20;;;;;;5405636;26;20619;-57
2024/04/20 09:55:06;;;;;;;3.27;1.80;;;14.50;46.50;;;;;;5400932;26;20599;-55
2024/04/20 09:57:37;;;;;;;6.73;2.17;;;14.50;45.40;;;;;;5395502;26;20522;-57
2024/04/20 10:00:06;;;;;;;4.80;2.20;;;14.40;45.10;;;;;;5404198;26;20475;-58
2024/04/20 10:02:32;;;;;;;2.30;2.00;;;14.50;45.70;;;;;;5406049;26;20467;-56
2024/04/20 10:05:00;;;;;;;3.17;2.27;;;14.60;46.40;;;;;;5398414;26;20519;-56
2024/04/20 10:07:30;;;;;;;2.57;2.37;;;14.40;46.90;;;;;;5398535;26;21135;-57
2024/04/20 10:10:00;;;;;;;3.30;2.70;;;14.20;47.60;;;;;;5404797;26;20472;-58
2024/04/20 10:12:26;;;;;;;2.60;2.40;;;14.10;48.30;;;;;;5406408;26;21065;-57
2024/04/20 10:14:53;;;;;;;3.30;3.00;;;13.80;48.60;;;;;;5406643;26;20803;-59
2024/04/20 10:17:18;;;;;;;3.20;2.90;;;14.00;48.90;;;;;;5402889;26;20583;-58
2024/04/20 10:19:44;;;;;;;3.20;2.90;;;14.10;49.30;;;;;;5404137;26;20994;-56
2024/04/20 10:22:11;;;;;;;3.70;2.63;;;14.30;49.70;;;;;;5402703;26;20241;-57
2024/04/20 10:24:37;;;;;;;2.33;2.13;;;14.60;49.60;;;;;;5403410;26;20513;-56
2024/04/20 10:27:03;;;;;;;2.70;2.50;;;14.90;47.80;;;;;;5388513;26;20477;-58
2024/04/20 10:29:31;;;;;;;3.30;1.93;;;15.10;45.70;;;;;;5393558;26;20847;-58
2024/04/20 10:31:58;;;;;;;2.90;2.67;;;15.40;46.60;;;;;;5401128;26;20525;-60
2024/04/20 10:34:25;;;;;;;2.23;2.07;;;15.70;44.80;;;;;;5402937;26;20527;-60
2024/04/20 10:37:00;;;;;;;3.13;2.03;;;15.60;44.10;;;;;;5407537;26;20582;-59
2024/04/20 10:39:27;;;;;;;1.53;1.37;;;15.70;44.30;;;;;;5396236;26;20472;-60
2024/04/20 10:41:52;;;;;;;1.70;1.60;;;15.60;41.90;;;;;;5406326;26;20564;-60
2024/04/20 10:44:18;;;;;;;2.80;1.80;;;15.80;41.00;;;;;;5403535;26;20461;-59
2024/04/20 10:46:53;;;;;;;2.40;2.20;;;15.80;41.50;;;;;;5396338;26;20243;-60
2024/04/20 10:49:20;;;;;;;1.80;1.67;;;15.90;42.60;;;;;;5393646;26;20234;-59
2024/04/20 10:51:54;;;;;;;2.20;2.00;;;15.60;42.20;;;;;;5398230;26;20906;-58
2024/04/20 10:54:20;;;;;;;3.50;2.00;;;15.60;43.30;;;;;;5401630;26;21118;-58
2024/04/20 10:56:46;;;;;;;3.70;1.63;;;15.20;41.70;;;;;;5396903;26;20535;-59
2024/04/20 10:59:12;;;;;;;5.80;1.93;;;15.30;42.00;;;;;;5403071;26;20527;-60
2024/04/20 11:01:43;;;;;;;2.60;1.40;;;15.40;41.70;;;;;;5393385;26;20557;-60
2024/04/20 11:04:09;;;;;;;1.57;1.47;;;15.40;41.50;;;;;;5408809;26;20476;-57
2024/04/20 11:06:35;;;;;;;1.93;1.63;;;15.10;40.50;;;;;;5410742;26;20521;-59
2024/04/20 11:09:10;;;;;;;1.87;1.73;;;15.30;41.60;;;;;;5404371;26;20234;-60
2024/04/20 11:11:35;;;;;;;2.37;1.67;;;15.40;41.10;;;;;;5401129;26;20459;-56
2024/04/20 11:14:01;;;;;;;1.73;1.63;;;15.40;41.30;;;;;;5406788;26;20483;-59
2024/04/20 11:16:27;;;;;;;2.60;2.23;;;15.50;41.90;;;;;;5404622;26;20280;-59
2024/04/20 11:18:53;;;;;;;2.60;2.10;;;15.40;42.30;;;;;;5399067;26;20229;-59
2024/04/20 11:21:19;;;;;;;2.77;1.70;;;15.10;43.00;;;;;;5402481;26;20719;-58
2024/04/20 11:23:45;;;;;;;2.33;1.70;;;15.00;43.60;;;;;;5397867;26;20254;-59
2024/04/20 11:26:10;;;;;;;2.73;1.83;;;15.00;42.80;;;;;;5400485;26;20471;-60
2024/04/20 11:28:37;;;;;;;2.60;1.40;;;15.00;42.60;;;;;;5405130;26;20775;-59
2024/04/20 11:31:02;;;;;;;3.20;1.87;;;14.80;43.20;;;;;;5396360;26;20234;-59
2024/04/20 11:33:29;;;;;;;2.27;1.93;;;14.90;44.30;;;;;;5408160;26;20472;-60
2024/04/20 11:35:55;;;;;;;2.30;2.10;;;14.90;43.60;;;;;;5391412;26;20238;-60
2024/04/20 11:38:21;;;;;;;2.03;1.83;;;14.80;43.90;;;;;;5397209;26;20535;-60
2024/04/20 11:40:51;;;;;;;2.57;2.03;;;14.70;44.40;;;;;;5397881;26;20483;-59
2024/04/20 11:43:24;;;;;;;3.07;1.83;;;14.70;44.40;;;;;;5401980;26;20508;-59
2024/04/20 11:45:54;;;;;;;2.33;2.13;;;14.90;44.60;;;;;;5397920;26;20877;-60
2024/04/20 11:48:25;;;;;;;2.77;2.10;;;14.80;44.00;;;;;;5407582;26;20592;-59
2024/04/20 11:51:01;;;;;;;2.77;2.07;;;14.60;44.10;;;;;;5399866;26;20527;-59
2024/04/20 11:56:15;;;;;;;2.43;2.13;;;14.50;45.00;;;;;;5392792;26;20523;-59
2024/04/20 11:58:47;;;;;;;1.97;1.83;;;14.50;44.10;;;;;;5397721;26;20555;-59
2024/04/20 12:01:13;;;;;;;2.03;1.73;;;14.60;44.00;;;;;;5407484;26;20249;-59
2024/04/20 12:03:39;;;;;;;2.70;2.37;;;14.80;44.30;;;;;;5408012;26;21069;-60
2024/04/20 12:06:08;;;;;;;2.87;2.17;;;14.90;44.40;;;;;;5390009;26;21022;-56
2024/04/20 12:08:34;;;;;;;4.33;2.10;;;14.70;44.10;;;;;;5388639;26;20824;-60
2024/04/20 12:10:59;;;;;;;2.40;2.20;;;14.80;44.80;;;;;;5401323;26;20527;-58
2024/04/20 12:13:25;;;;;;;2.33;2.13;;;14.80;43.80;;;;;;5401588;26;20287;-60
2024/04/20 12:15:51;;;;;;;3.93;2.03;;;15.00;44.20;;;;;;5401332;26;20295;-60
2024/04/20 12:18:17;;;;;;;3.40;1.43;;;14.80;43.80;;;;;;5396035;26;20819;-59
2024/04/20 12:20:43;;;;;;;4.23;1.80;;;14.70;44.10;;;;;;5400156;26;20260;-60
2024/04/20 12:23:08;;;;;;;2.70;1.90;;;14.60;43.00;;;;;;5396937;26;20285;-56
2024/04/20 12:25:34;;;;;;;5.70;1.93;;;14.60;43.40;;;;;;5402784;26;20463;-59
2024/04/20 12:28:00;;;;;;;1.53;1.30;;;14.80;43.10;;;;;;5402089;26;20268;-60
2024/04/20 12:30:25;;;;;;;2.40;1.70;;;15.00;42.90;;;;;;5391999;26;20624;-59
2024/04/20 12:32:51;;;;;;;4.77;2.00;;;15.00;42.60;;;;;;5400351;26;20317;-59
2024/04/20 12:35:16;;;;;;;1.93;1.73;;;15.20;43.50;;;;;;5397914;26;20284;-60
2024/04/20 12:37:42;;;;;;;3.90;2.00;;;15.40;43.00;;;;;;5406937;26;20678;-59
2024/04/20 12:40:08;;;;;;;2.00;1.90;;;15.50;42.50;;;;;;5406980;26;20849;-59
2024/04/20 12:42:35;;;;;;;3.00;1.93;;;15.60;42.10;;;;;;5410065;26;20238;-59
2024/04/20 12:45:02;;;;;;;3.67;1.70;;;15.80;42.20;;;;;;5403725;26;20526;-59